createdAt,value
2022-08-28T00:00:12.898Z,22.39
2022-08-28T00:02:42.966Z,22.37
2022-08-28T00:05:12.877Z,22.33
2022-08-28T00:07:46.975Z,22.32
2022-08-28T00:10:18.970Z,22.27
2022-08-28T00:12:49.194Z,22.29
2022-08-28T00:15:20.335Z,22.29
2022-08-28T00:17:51.351Z,22.28
2022-08-28T00:20:23.167Z,22.27
2022-08-28T00:22:53.179Z,22.24
2022-08-28T00:25:24.599Z,22.22
2022-08-28T00:27:55.606Z,22.23
2022-08-28T00:30:27.901Z,22.27
2022-08-28T00:33:00.288Z,22.23
2022-08-28T00:35:30.362Z,22.21
2022-08-28T00:37:59.316Z,22.19
2022-08-28T00:40:32.943Z,22.17
2022-08-28T00:43:04.501Z,22.14
2022-08-28T00:45:39.326Z,22.12
2022-08-28T00:48:10.381Z,22.13
2022-08-28T00:51:00.347Z,22.17
2022-08-28T00:53:32.851Z,22.18
2022-08-28T00:56:10.363Z,22.19
2022-08-28T00:58:44.916Z,22.15
2022-08-28T01:01:14.703Z,22.15
2022-08-28T01:03:46.311Z,22.13
2022-08-28T01:06:16.634Z,22.15
2022-08-28T01:08:50.602Z,22.17
2022-08-28T01:11:21.002Z,22.19
2022-08-28T01:13:54.343Z,22.13
2022-08-28T01:16:28.365Z,22.20
2022-08-28T01:19:05.467Z,22.17
2022-08-28T01:21:40.871Z,21.95
2022-08-28T01:24:14.713Z,22.10
2022-08-28T01:26:44.245Z,22.06
2022-08-28T01:29:13.225Z,22.05
2022-08-28T01:31:43.263Z,22.07
2022-08-28T01:34:13.099Z,22.07
2022-08-28T01:36:43.440Z,22.06
2022-08-28T01:39:15.986Z,22.03
2022-08-28T01:41:47.500Z,21.99
2022-08-28T01:44:18.259Z,21.98
2022-08-28T01:46:47.750Z,21.96
2022-08-28T01:49:17.115Z,21.97
2022-08-28T01:51:46.889Z,21.98
2022-08-28T01:54:19.230Z,22.02
2022-08-28T01:56:48.025Z,22.02
2022-08-28T01:59:17.107Z,22.05
2022-08-28T02:01:46.790Z,22.06
2022-08-28T02:04:16.854Z,22.07
2022-08-28T02:06:45.419Z,22.05
2022-08-28T02:09:15.021Z,22.05
2022-08-28T02:11:46.571Z,21.96
2022-08-28T02:14:16.706Z,21.97
2022-08-28T02:16:45.438Z,22.00
2022-08-28T02:19:14.398Z,21.93
2022-08-28T02:21:42.839Z,21.89
2022-08-28T02:24:12.082Z,21.85
2022-08-28T02:26:41.027Z,21.84
2022-08-28T02:29:10.750Z,21.82
2022-08-28T02:31:40.131Z,21.80
2022-08-28T02:34:11.034Z,21.78
2022-08-28T02:36:43.034Z,21.73
2022-08-28T02:39:12.111Z,21.73
2022-08-28T02:41:41.311Z,21.72
2022-08-28T02:44:11.263Z,21.71
2022-08-28T02:46:40.335Z,21.59
2022-08-28T02:49:08.659Z,21.67
2022-08-28T02:51:37.884Z,21.65
2022-08-28T02:54:06.314Z,21.65
2022-08-28T02:56:35.443Z,21.65
2022-08-28T02:59:04.288Z,21.65
2022-08-28T03:01:34.969Z,21.62
2022-08-28T03:04:03.811Z,21.60
2022-08-28T03:06:34.154Z,21.61
2022-08-28T03:09:02.736Z,21.59
2022-08-28T03:11:31.207Z,21.56
2022-08-28T03:14:02.942Z,21.53
2022-08-28T03:16:32.886Z,21.50
2022-08-28T03:19:03.758Z,21.50
2022-08-28T03:21:32.909Z,21.52
2022-08-28T03:24:00.641Z,21.48
2022-08-28T03:26:29.681Z,21.47
2022-08-28T03:28:59.726Z,21.46
2022-08-28T03:31:33.089Z,21.43
2022-08-28T03:34:03.882Z,21.45
2022-08-28T03:36:34.236Z,21.45
2022-08-28T03:39:05.871Z,21.41
2022-08-28T03:41:35.395Z,21.39
2022-08-28T03:44:05.058Z,21.37
2022-08-28T03:46:34.750Z,21.37
2022-08-28T03:49:06.499Z,21.36
2022-08-28T03:51:36.105Z,21.35
2022-08-28T03:54:05.576Z,21.31
2022-08-28T03:56:34.513Z,21.31
2022-08-28T03:59:05.691Z,21.29
2022-08-28T04:01:34.896Z,21.31
2022-08-28T04:04:05.657Z,21.30
2022-08-28T04:06:34.010Z,21.28
2022-08-28T04:09:05.060Z,21.26
2022-08-28T04:11:38.349Z,21.27
2022-08-28T04:14:07.522Z,21.26
2022-08-28T04:16:36.722Z,21.20
2022-08-28T04:19:07.281Z,21.25
2022-08-28T04:21:36.127Z,21.22
2022-08-28T04:24:09.407Z,21.20
2022-08-28T04:26:38.434Z,21.23
2022-08-28T04:29:08.137Z,21.22
2022-08-28T04:31:37.795Z,21.20
2022-08-28T04:34:09.195Z,21.23
2022-08-28T04:36:39.391Z,21.21
2022-08-28T04:39:10.210Z,21.21
2022-08-28T04:41:39.514Z,21.22
2022-08-28T04:44:08.943Z,21.22
2022-08-28T04:46:38.527Z,21.22
2022-08-28T04:49:09.170Z,21.18
2022-08-28T04:51:41.875Z,21.20
2022-08-28T04:54:12.271Z,21.16
2022-08-28T04:56:40.911Z,21.19
2022-08-28T04:59:10.463Z,21.17
2022-08-28T05:01:39.236Z,21.15
2022-08-28T05:04:11.947Z,21.18
2022-08-28T05:06:43.887Z,21.16
2022-08-28T05:09:12.204Z,21.18
2022-08-28T05:11:41.299Z,21.16
2022-08-28T05:14:15.393Z,21.17
2022-08-28T05:16:47.949Z,21.18
2022-08-28T05:19:19.371Z,21.17
2022-08-28T05:21:49.065Z,21.19
2022-08-28T05:24:18.060Z,21.20
2022-08-28T05:26:48.319Z,21.21
2022-08-28T05:29:17.742Z,21.20
2022-08-28T05:31:47.848Z,21.19
2022-08-28T05:34:17.829Z,21.18
2022-08-28T05:36:46.953Z,21.16
2022-08-28T05:39:17.370Z,21.14
2022-08-28T05:41:47.653Z,21.12
2022-08-28T05:44:18.029Z,21.14
2022-08-28T05:46:49.051Z,21.13
2022-08-28T05:49:20.400Z,21.12
2022-08-28T05:51:50.890Z,21.12
2022-08-28T05:54:19.956Z,21.13
2022-08-28T05:56:49.309Z,21.12
2022-08-28T05:59:18.756Z,21.13
2022-08-28T06:01:49.206Z,21.16
2022-08-28T06:04:24.094Z,21.20
2022-08-28T06:06:52.783Z,21.18
2022-08-28T06:09:28.759Z,21.20
2022-08-28T06:12:00.259Z,21.18
2022-08-28T06:14:29.715Z,21.18
2022-08-28T06:16:59.887Z,21.22
2022-08-28T06:19:31.920Z,21.23
2022-08-28T06:22:07.287Z,21.21
2022-08-28T06:24:36.448Z,21.19
2022-08-28T06:27:06.175Z,21.18
2022-08-28T06:29:34.876Z,21.21
2022-08-28T06:32:05.952Z,21.23
2022-08-28T06:34:35.777Z,21.28
2022-08-28T06:37:04.982Z,21.31
2022-08-28T06:39:33.352Z,21.34
2022-08-28T06:42:02.002Z,21.37
2022-08-28T06:44:32.565Z,21.39
2022-08-28T06:47:00.923Z,21.34
2022-08-28T06:49:29.715Z,21.39
2022-08-28T06:51:59.815Z,21.42
2022-08-28T06:54:30.913Z,21.47
2022-08-28T06:56:59.837Z,21.53
2022-08-28T07:02:19.180Z,21.55
2022-08-28T07:04:51.760Z,21.59
2022-08-28T07:07:32.426Z,21.64
2022-08-28T07:10:01.183Z,21.68
2022-08-28T07:12:30.259Z,21.67
2022-08-28T07:14:58.626Z,21.74
2022-08-28T07:17:27.750Z,21.78
2022-08-28T07:19:56.587Z,21.77
2022-08-28T07:22:26.550Z,21.81
2022-08-28T07:24:55.957Z,21.84
2022-08-28T07:27:25.259Z,21.81
2022-08-28T07:29:54.430Z,21.83
2022-08-28T07:32:22.779Z,21.87
2022-08-28T07:34:52.273Z,21.92
2022-08-28T07:37:20.842Z,21.94
2022-08-28T07:39:51.323Z,22.00
2022-08-28T07:42:35.664Z,22.11
2022-08-28T07:45:05.435Z,22.14
2022-08-28T07:47:34.178Z,22.27
2022-08-28T07:50:03.321Z,22.37
2022-08-28T07:52:31.658Z,22.41
2022-08-28T07:55:01.691Z,22.47
2022-08-28T07:57:32.415Z,22.55
2022-08-28T08:00:00.727Z,22.54
2022-08-28T08:02:30.398Z,22.58
2022-08-28T08:04:59.069Z,22.56
2022-08-28T08:07:27.374Z,22.53
2022-08-28T08:09:56.487Z,22.61
2022-08-28T08:12:29.492Z,22.57
2022-08-28T08:14:57.916Z,22.61
2022-08-28T08:17:27.135Z,22.64
2022-08-28T08:19:55.567Z,22.71
2022-08-28T08:22:25.649Z,22.80
2022-08-28T08:24:55.285Z,22.86
2022-08-28T08:27:24.586Z,22.93
2022-08-28T08:29:54.618Z,22.93
2022-08-28T08:32:23.008Z,22.98
2022-08-28T08:34:56.014Z,23.11
2022-08-28T08:37:24.823Z,23.30
2022-08-28T08:39:54.613Z,23.47
2022-08-28T08:42:26.876Z,23.57
2022-08-28T08:44:59.370Z,23.74
2022-08-28T08:47:36.399Z,23.85
2022-08-28T08:50:08.452Z,23.92
2022-08-28T08:52:41.419Z,23.85
2022-08-28T08:55:32.615Z,23.78
2022-08-28T08:58:07.542Z,23.73
2022-08-28T09:00:44.644Z,23.71
2022-08-28T09:03:17.123Z,23.66
2022-08-28T09:05:50.793Z,23.64
2022-08-28T09:08:32.834Z,23.62
2022-08-28T09:11:07.548Z,23.62
2022-08-28T09:13:47.350Z,23.82
2022-08-28T09:16:25.215Z,23.91
2022-08-28T09:18:57.320Z,24.02
2022-08-28T09:21:31.143Z,24.11
2022-08-28T09:24:05.756Z,24.22
2022-08-28T09:26:35.816Z,24.29
2022-08-28T09:29:07.734Z,24.45
2022-08-28T09:31:41.579Z,24.75
2022-08-28T09:34:24.054Z,24.93
2022-08-28T09:36:54.213Z,25.18
2022-08-28T09:39:24.741Z,25.26
2022-08-28T09:42:15.590Z,25.19
2022-08-28T09:44:53.606Z,25.10
2022-08-28T09:47:46.048Z,25.16
2022-08-28T09:50:35.169Z,25.29
2022-08-28T09:53:20.974Z,25.37
2022-08-28T09:55:57.927Z,25.42
2022-08-28T09:58:39.061Z,25.42
2022-08-28T10:01:38.097Z,25.42
2022-08-28T10:04:25.840Z,25.50
2022-08-28T10:06:58.286Z,25.58
2022-08-28T10:09:34.115Z,25.61
2022-08-28T10:12:15.585Z,25.54
2022-08-28T10:14:55.177Z,25.47
2022-08-28T10:17:38.318Z,25.47
2022-08-28T10:20:15.935Z,25.52
2022-08-28T10:22:53.883Z,25.47
2022-08-28T10:25:28.180Z,25.56
2022-08-28T10:28:12.844Z,25.72
2022-08-28T10:30:53.341Z,25.60
2022-08-28T10:33:36.709Z,25.64
2022-08-28T10:36:26.441Z,25.58
2022-08-28T10:39:13.035Z,25.54
2022-08-28T10:41:47.278Z,25.52
2022-08-28T10:44:22.040Z,25.54
2022-08-28T10:46:53.513Z,25.59
2022-08-28T10:49:27.567Z,25.55
2022-08-28T10:52:03.277Z,25.53
2022-08-28T10:54:41.811Z,25.42
2022-08-28T10:57:23.550Z,25.46
2022-08-28T10:59:54.749Z,25.55
2022-08-28T11:02:27.045Z,25.68
2022-08-28T11:04:58.923Z,25.91
2022-08-28T11:07:33.502Z,25.96
2022-08-28T11:10:45.768Z,25.94
2022-08-28T11:13:34.413Z,25.90
2022-08-28T11:16:13.316Z,25.73
2022-08-28T11:19:15.432Z,25.57
2022-08-28T11:21:48.971Z,25.35
2022-08-28T11:24:35.194Z,25.35
2022-08-28T11:27:17.977Z,25.31
2022-08-28T11:30:22.748Z,25.33
2022-08-28T11:33:08.114Z,25.51
2022-08-28T11:35:44.387Z,25.71
2022-08-28T11:38:15.598Z,25.80
2022-08-28T11:41:11.173Z,26.04
2022-08-28T11:43:41.670Z,26.31
2022-08-28T11:46:26.276Z,26.76
2022-08-28T11:48:57.352Z,27.01
2022-08-28T11:51:56.936Z,26.97
2022-08-28T11:54:39.420Z,27.10
2022-08-28T11:57:18.710Z,27.33
2022-08-28T12:00:02.623Z,27.69
2022-08-28T12:02:50.553Z,27.77
2022-08-28T12:05:54.927Z,27.63
2022-08-28T12:09:09.573Z,27.34
2022-08-28T12:11:59.501Z,27.04
2022-08-28T12:15:08.885Z,27.04
2022-08-28T12:17:50.121Z,26.99
2022-08-28T12:20:40.314Z,26.87
2022-08-28T12:23:41.450Z,26.77
2022-08-28T12:26:18.918Z,26.65
2022-08-28T12:28:50.459Z,26.63
2022-08-28T12:32:13.453Z,26.56
2022-08-28T12:34:53.927Z,26.50
2022-08-28T12:37:51.015Z,26.50
2022-08-28T12:40:25.279Z,26.53
2022-08-28T12:42:56.575Z,26.67
2022-08-28T12:45:29.129Z,26.78
2022-08-28T12:48:01.042Z,26.85
2022-08-28T12:50:35.605Z,26.87
2022-08-28T12:53:12.624Z,27.00
2022-08-28T12:55:42.002Z,27.30
2022-08-28T12:58:15.370Z,27.75
2022-08-28T13:00:54.210Z,27.83
2022-08-28T13:03:23.599Z,27.70
2022-08-28T13:06:01.346Z,27.65
2022-08-28T13:08:30.602Z,27.75
2022-08-28T13:10:59.362Z,27.91
2022-08-28T13:13:35.810Z,28.17
2022-08-28T13:16:06.177Z,28.51
2022-08-28T13:18:51.788Z,28.59
2022-08-28T13:21:34.023Z,28.84
2022-08-28T13:24:27.591Z,29.47
2022-08-28T13:27:07.016Z,29.92
2022-08-28T13:29:36.850Z,30.06
2022-08-28T13:32:08.395Z,30.23
2022-08-28T13:34:48.049Z,30.43
2022-08-28T13:37:44.432Z,30.12
2022-08-28T13:40:38.154Z,29.76
2022-08-28T13:43:08.105Z,29.18
2022-08-28T13:45:43.520Z,29.00
2022-08-28T13:48:14.334Z,29.20
2022-08-28T13:50:46.601Z,29.59
2022-08-28T13:53:19.529Z,29.62
2022-08-28T13:55:50.453Z,29.29
2022-08-28T13:58:19.123Z,29.06
2022-08-28T14:00:51.118Z,29.18
2022-08-28T14:03:38.906Z,29.29
2022-08-28T14:06:12.292Z,29.59
2022-08-28T14:08:44.080Z,30.18
2022-08-28T14:11:15.073Z,30.78
2022-08-28T14:13:46.881Z,30.54
2022-08-28T14:16:24.596Z,30.14
2022-08-28T14:18:54.232Z,29.75
2022-08-28T14:21:24.361Z,29.50
2022-08-28T14:23:54.772Z,29.36
2022-08-28T14:26:23.565Z,29.64
2022-08-28T14:28:51.870Z,29.83
2022-08-28T14:31:21.112Z,30.00
2022-08-28T14:33:55.089Z,30.03
2022-08-28T14:36:27.059Z,29.83
2022-08-28T14:39:02.828Z,30.01
2022-08-28T14:41:35.565Z,30.49
2022-08-28T14:44:04.989Z,30.65
2022-08-28T14:46:36.557Z,30.20
2022-08-28T14:49:08.786Z,29.82
2022-08-28T14:51:39.379Z,29.51
2022-08-28T14:54:12.693Z,29.24
2022-08-28T14:56:41.710Z,28.83
2022-08-28T14:59:17.539Z,28.79
2022-08-28T15:01:49.471Z,28.65
2022-08-28T15:04:23.015Z,28.48
2022-08-28T15:06:52.707Z,28.38
2022-08-28T15:09:23.016Z,28.28
2022-08-28T15:11:51.394Z,28.11
2022-08-28T15:14:20.742Z,27.95
2022-08-28T15:16:50.678Z,27.79
2022-08-28T15:19:19.559Z,27.66
2022-08-28T15:21:51.526Z,27.55
2022-08-28T15:24:24.613Z,27.44
2022-08-28T15:26:54.236Z,27.33
2022-08-28T15:29:22.547Z,27.27
2022-08-28T15:31:53.261Z,27.17
2022-08-28T15:34:24.162Z,27.08
2022-08-28T15:36:55.676Z,27.03
2022-08-28T15:39:44.292Z,27.02
2022-08-28T15:42:13.517Z,26.98
2022-08-28T15:44:43.090Z,27.00
2022-08-28T15:47:12.540Z,26.97
2022-08-28T15:49:46.137Z,26.88
2022-08-28T15:52:19.947Z,26.87
2022-08-28T15:54:50.074Z,26.92
2022-08-28T15:57:19.469Z,26.97
2022-08-28T15:59:49.828Z,27.04
2022-08-28T16:02:20.971Z,27.15
2022-08-28T16:04:50.016Z,27.25
2022-08-28T16:07:20.060Z,27.51
2022-08-28T16:09:50.454Z,27.88
2022-08-28T16:12:19.231Z,28.26
2022-08-28T16:14:48.724Z,28.60
2022-08-28T16:17:18.677Z,28.97
2022-08-28T16:19:48.397Z,29.30
2022-08-28T16:22:18.642Z,29.45
2022-08-28T16:24:47.094Z,29.56
2022-08-28T16:27:17.655Z,29.67
2022-08-28T16:29:49.469Z,29.63
2022-08-28T16:32:21.631Z,29.64
2022-08-28T16:34:50.182Z,29.42
2022-08-28T16:37:20.966Z,29.22
2022-08-28T16:39:56.458Z,29.09
2022-08-28T16:42:28.646Z,28.88
2022-08-28T16:45:02.061Z,28.70
2022-08-28T16:47:33.019Z,28.51
2022-08-28T16:50:08.872Z,28.35
2022-08-28T16:52:38.016Z,28.23
2022-08-28T16:55:08.591Z,28.09
2022-08-28T16:57:39.595Z,28.01
2022-08-28T17:00:13.577Z,27.92
2022-08-28T17:02:43.313Z,27.85
2022-08-28T17:05:13.299Z,27.80
2022-08-28T17:07:43.994Z,27.79
2022-08-28T17:10:14.233Z,27.86
2022-08-28T17:12:44.646Z,27.90
2022-08-28T17:15:13.908Z,27.87
2022-08-28T17:17:43.364Z,27.81
2022-08-28T17:20:33.483Z,27.73
2022-08-28T17:23:02.234Z,27.68
2022-08-28T17:25:31.084Z,27.64
2022-08-28T17:28:01.360Z,27.58
2022-08-28T17:30:30.725Z,27.53
2022-08-28T17:32:59.112Z,27.40
2022-08-28T17:35:27.812Z,27.32
2022-08-28T17:37:57.464Z,27.26
2022-08-28T17:40:26.187Z,27.15
2022-08-28T17:42:55.463Z,27.07
2022-08-28T17:45:25.506Z,26.98
2022-08-28T17:47:54.318Z,26.93
2022-08-28T17:50:23.478Z,26.87
2022-08-28T17:52:52.219Z,26.80
2022-08-28T17:55:21.291Z,26.72
2022-08-28T17:57:49.713Z,26.65
2022-08-28T18:00:19.321Z,26.57
2022-08-28T18:02:52.070Z,26.50
2022-08-28T18:05:21.005Z,26.43
2022-08-28T18:07:49.444Z,26.38
2022-08-28T18:10:17.836Z,26.32
2022-08-28T18:12:48.166Z,26.27
2022-08-28T18:15:17.041Z,26.22
2022-08-28T18:17:50.345Z,26.17
2022-08-28T18:20:20.971Z,26.09
2022-08-28T18:22:49.689Z,26.04
2022-08-28T18:25:33.086Z,25.97
2022-08-28T18:28:01.770Z,25.90
2022-08-28T18:30:30.463Z,25.86
2022-08-28T18:32:59.448Z,25.80
2022-08-28T18:35:31.875Z,25.75
2022-08-28T18:38:01.630Z,25.70
2022-08-28T18:40:31.616Z,25.65
2022-08-28T18:43:00.693Z,25.59
2022-08-28T18:45:29.551Z,25.50
2022-08-28T18:47:58.562Z,25.43
2022-08-28T18:50:28.273Z,25.32
2022-08-28T18:52:59.391Z,25.24
2022-08-28T18:55:31.056Z,25.15
2022-08-28T18:58:02.199Z,25.05
2022-08-28T19:00:31.807Z,24.99
2022-08-28T19:03:00.453Z,24.93
2022-08-28T19:05:30.141Z,24.76
2022-08-28T19:08:02.232Z,24.60
2022-08-28T19:10:34.386Z,24.52
2022-08-28T19:13:04.006Z,24.44
2022-08-28T19:15:33.071Z,24.36
2022-08-28T19:18:02.967Z,24.33
2022-08-28T19:20:32.097Z,24.29
2022-08-28T19:23:02.007Z,24.21
2022-08-28T19:25:31.882Z,24.15
2022-08-28T19:28:01.645Z,24.11
2022-08-28T19:30:33.391Z,24.05
2022-08-28T19:33:03.715Z,24.05
2022-08-28T19:35:34.034Z,24.03
2022-08-28T19:38:03.766Z,23.98
2022-08-28T19:40:34.051Z,23.93
2022-08-28T19:43:02.935Z,23.88
2022-08-28T19:45:34.389Z,23.82
2022-08-28T19:48:03.257Z,23.82
2022-08-28T19:50:32.662Z,23.79
2022-08-28T19:53:01.121Z,23.69
2022-08-28T19:55:31.535Z,23.64
2022-08-28T19:58:00.467Z,23.58
2022-08-28T20:00:30.047Z,23.56
2022-08-28T20:02:58.800Z,23.59
2022-08-28T20:05:27.547Z,23.57
2022-08-28T20:07:55.942Z,23.52
2022-08-28T20:10:24.323Z,23.48
2022-08-28T20:12:55.011Z,23.45
2022-08-28T20:15:24.416Z,23.44
2022-08-28T20:17:52.832Z,23.36
2022-08-28T20:20:25.671Z,23.30
2022-08-28T20:22:58.343Z,23.29
2022-08-28T20:25:27.633Z,23.24
2022-08-28T20:28:01.532Z,23.21
2022-08-28T20:30:31.086Z,23.14
2022-08-28T20:33:01.227Z,23.14
2022-08-28T20:35:30.574Z,23.09
2022-08-28T20:37:58.947Z,23.07
2022-08-28T20:40:27.815Z,23.02
2022-08-28T20:42:59.960Z,22.95
2022-08-28T20:45:28.595Z,22.91
2022-08-28T20:47:57.692Z,22.84
2022-08-28T20:50:26.642Z,22.77
2022-08-28T20:52:55.947Z,22.72
2022-08-28T20:55:24.338Z,22.72
2022-08-28T20:57:53.341Z,22.66
2022-08-28T21:00:25.698Z,22.63
2022-08-28T21:02:54.493Z,22.55
2022-08-28T21:05:22.891Z,22.52
2022-08-28T21:07:51.606Z,22.48
2022-08-28T21:10:20.111Z,22.47
2022-08-28T21:12:48.814Z,22.44
2022-08-28T21:15:17.226Z,22.43
2022-08-28T21:17:48.527Z,22.33
2022-08-28T21:20:17.437Z,22.23
2022-08-28T21:22:47.314Z,22.16
2022-08-28T21:25:17.099Z,22.16
2022-08-28T21:27:47.335Z,22.13
2022-08-28T21:30:18.392Z,22.04
2022-08-28T21:32:51.229Z,22.01
2022-08-28T21:35:21.981Z,21.98
2022-08-28T21:37:51.115Z,21.98
2022-08-28T21:42:48.409Z,21.87
2022-08-28T21:45:17.149Z,21.87
2022-08-28T21:47:48.391Z,21.89
2022-08-28T21:50:17.560Z,21.86
2022-08-28T21:52:46.329Z,21.79
2022-08-28T21:55:17.405Z,21.76
2022-08-28T21:57:47.016Z,21.78
2022-08-28T22:00:19.234Z,21.78
2022-08-28T22:02:49.571Z,21.78
2022-08-28T22:05:18.274Z,21.76
2022-08-28T22:07:47.189Z,21.68
2022-08-28T22:10:16.416Z,21.66
2022-08-28T22:12:44.853Z,21.59
2022-08-28T22:15:14.130Z,21.48
2022-08-28T22:17:42.478Z,21.48
2022-08-28T22:20:12.967Z,21.45
2022-08-28T22:22:59.162Z,21.47
2022-08-28T22:25:27.469Z,21.46
2022-08-28T22:27:56.430Z,21.37
2022-08-28T22:30:25.006Z,21.25
2022-08-28T22:32:53.855Z,21.19
2022-08-28T22:35:25.351Z,21.17
2022-08-28T22:37:53.778Z,21.14
2022-08-28T22:40:24.537Z,21.07
2022-08-28T22:42:52.893Z,21.04
2022-08-28T22:45:22.439Z,20.97
2022-08-28T22:47:51.570Z,20.91
2022-08-28T22:50:20.441Z,20.86
2022-08-28T22:52:51.262Z,20.84
2022-08-28T22:55:21.858Z,20.81
2022-08-28T22:57:51.712Z,20.79
2022-08-28T23:00:23.857Z,20.78
2022-08-28T23:02:54.366Z,20.74
2022-08-28T23:05:23.518Z,20.70
2022-08-28T23:07:55.000Z,20.68
2022-08-28T23:10:42.102Z,20.68
2022-08-28T23:13:14.594Z,20.65
2022-08-28T23:15:44.572Z,20.72
2022-08-28T23:18:13.062Z,20.67
2022-08-28T23:20:42.582Z,20.62
2022-08-28T23:23:12.900Z,20.62
2022-08-28T23:25:41.247Z,20.61
2022-08-28T23:28:10.387Z,20.51
2022-08-28T23:30:38.896Z,20.44
2022-08-28T23:33:08.801Z,20.39
2022-08-28T23:35:38.031Z,20.39
2022-08-28T23:38:07.320Z,20.34
2022-08-28T23:40:37.444Z,20.29
2022-08-28T23:43:06.647Z,20.25
2022-08-28T23:45:35.036Z,20.23
2022-08-28T23:48:04.635Z,20.21
2022-08-28T23:50:34.266Z,20.17
2022-08-28T23:53:03.242Z,20.18
2022-08-28T23:55:33.430Z,20.14
2022-08-28T23:58:04.113Z,20.11
